createdAt,value
2022-08-23T00:01:34.208Z,101159.25
2022-08-23T00:04:03.638Z,101162.94
2022-08-23T00:06:31.073Z,101162.09
2022-08-23T00:08:58.916Z,101162.09
2022-08-23T00:11:32.057Z,101157.56
2022-08-23T00:14:00.485Z,101153.88
2022-08-23T00:16:27.950Z,101153.53
2022-08-23T00:18:55.400Z,101155.56
2022-08-23T00:21:23.217Z,101158.25
2022-08-23T00:23:50.911Z,101154.72
2022-08-23T00:26:20.524Z,101152.19
2022-08-23T00:28:49.242Z,101158.56
2022-08-23T00:31:16.840Z,101154.19
2022-08-23T00:33:44.273Z,101157.91
2022-08-23T00:36:11.720Z,101148.16
2022-08-23T00:38:39.418Z,101146.31
2022-08-23T00:41:07.513Z,101145.47
2022-08-23T00:43:55.172Z,101141.09
2022-08-23T00:46:49.651Z,101135.91
2022-08-23T00:49:17.081Z,101144.63
2022-08-23T00:51:52.809Z,101139.09
2022-08-23T00:54:21.418Z,101140.09
2022-08-23T00:56:48.848Z,101143.81
2022-08-23T00:59:16.315Z,101138.25
2022-08-23T01:01:45.126Z,101136.56
2022-08-23T01:04:12.617Z,101134.03
2022-08-23T01:06:44.005Z,101134.72
2022-08-23T01:09:13.566Z,101133.06
2022-08-23T01:11:42.532Z,101134.88
2022-08-23T01:14:13.148Z,101127.69
2022-08-23T01:16:45.554Z,101127.69
2022-08-23T01:19:17.790Z,101128.34
2022-08-23T01:21:47.784Z,101131.88
2022-08-23T01:24:19.292Z,101133.06
2022-08-23T01:27:05.322Z,101136.56
2022-08-23T01:29:33.222Z,101135.91
2022-08-23T01:32:00.832Z,101135.03
2022-08-23T01:34:30.348Z,101131.53
2022-08-23T01:37:05.286Z,101134.03
2022-08-23T01:39:34.388Z,101131.34
2022-08-23T01:42:07.741Z,101131.19
2022-08-23T01:44:35.614Z,101133.06
2022-08-23T01:47:03.403Z,101135.56
2022-08-23T01:49:30.985Z,101129.50
2022-08-23T01:51:58.413Z,101134.03
2022-08-23T01:54:25.848Z,101127.84
2022-08-23T01:56:54.586Z,101135.91
2022-08-23T01:59:22.616Z,101132.53
2022-08-23T02:01:53.876Z,101130.00
2022-08-23T02:04:22.736Z,101130.97
2022-08-23T02:06:50.227Z,101128.28
2022-08-23T02:09:22.028Z,101129.13
2022-08-23T02:11:56.387Z,101133.66
2022-08-23T02:14:24.486Z,101130.00
2022-08-23T02:17:04.586Z,101132.69
2022-08-23T02:19:35.804Z,101130.97
2022-08-23T02:22:04.008Z,101122.94
2022-08-23T02:24:31.942Z,101123.09
2022-08-23T02:27:03.242Z,101123.75
2022-08-23T02:29:33.125Z,101129.13
2022-08-23T02:32:04.268Z,101130.00
2022-08-23T02:37:16.648Z,101129.28
2022-08-23T02:39:44.341Z,101135.53
2022-08-23T02:42:14.339Z,101127.47
2022-08-23T02:44:44.167Z,101133.66
2022-08-23T02:47:12.390Z,101131.16
2022-08-23T02:49:43.467Z,101140.72
2022-08-23T02:52:11.060Z,101136.34
2022-08-23T02:54:38.729Z,101132.84
2022-08-23T02:57:06.594Z,101140.22
2022-08-23T02:59:35.370Z,101137.34
2022-08-23T03:02:02.961Z,101135.00
2022-08-23T03:04:36.340Z,101137.53
2022-08-23T03:07:04.260Z,101140.38
2022-08-23T03:09:32.376Z,101137.03
2022-08-23T03:11:59.860Z,101144.22
2022-08-23T03:14:28.097Z,101146.09
2022-08-23T03:16:58.268Z,101147.94
2022-08-23T03:19:25.974Z,101145.41
2022-08-23T03:21:53.461Z,101147.22
2022-08-23T03:24:22.200Z,101146.41
2022-08-23T03:26:49.824Z,101140.03
2022-08-23T03:29:17.849Z,101151.63
2022-08-23T03:31:59.602Z,101151.44
2022-08-23T03:34:27.940Z,101158.84
2022-08-23T03:36:56.194Z,101163.34
2022-08-23T03:39:23.815Z,101164.88
2022-08-23T03:41:51.331Z,101160.66
2022-08-23T03:44:19.312Z,101164.38
2022-08-23T03:46:46.878Z,101165.22
2022-08-23T03:49:15.673Z,101171.41
2022-08-23T03:51:53.551Z,101170.56
2022-08-23T03:54:22.790Z,101163.53
2022-08-23T03:56:53.102Z,101166.22
2022-08-23T03:59:20.658Z,101158.16
2022-08-23T04:01:48.463Z,101160.84
2022-08-23T04:04:17.646Z,101151.09
2022-08-23T04:07:05.072Z,101160.16
2022-08-23T04:09:32.495Z,101157.47
2022-08-23T04:11:59.969Z,101154.78
2022-08-23T04:14:28.204Z,101156.47
2022-08-23T04:16:56.025Z,101154.78
2022-08-23T04:19:25.622Z,101157.47
2022-08-23T04:22:01.088Z,101161.00
2022-08-23T04:24:35.418Z,101155.66
2022-08-23T04:27:02.868Z,101159.31
2022-08-23T04:29:34.376Z,101163.00
2022-08-23T04:32:02.988Z,101163.88
2022-08-23T04:34:34.670Z,101156.78
2022-08-23T04:37:02.295Z,101164.84
2022-08-23T04:39:29.782Z,101172.91
2022-08-23T04:42:15.785Z,101173.75
2022-08-23T04:44:43.646Z,101168.38
2022-08-23T04:47:12.623Z,101168.38
2022-08-23T04:49:41.453Z,101169.41
2022-08-23T04:52:09.197Z,101175.59
2022-08-23T04:54:36.922Z,101174.75
2022-08-23T04:57:27.504Z,101172.25
2022-08-23T04:59:55.073Z,101180.28
2022-08-23T05:02:23.057Z,101189.03
2022-08-23T05:04:52.756Z,101189.03
2022-08-23T05:07:21.618Z,101193.41
2022-08-23T05:10:10.257Z,101195.22
2022-08-23T05:12:37.865Z,101188.19
2022-08-23T05:15:05.589Z,101193.72
2022-08-23T05:17:33.342Z,101198.09
2022-08-23T05:20:02.328Z,101187.38
2022-08-23T05:22:33.556Z,101191.88
2022-08-23T05:25:19.089Z,101198.09
2022-08-23T05:27:46.870Z,101200.09
2022-08-23T05:30:15.412Z,101196.56
2022-08-23T05:32:43.485Z,101196.41
2022-08-23T05:35:13.176Z,101202.94
2022-08-23T05:37:43.983Z,101201.09
2022-08-23T05:40:11.860Z,101208.13
2022-08-23T05:42:48.475Z,101197.03
2022-08-23T05:45:20.722Z,101196.22
2022-08-23T05:47:49.802Z,101199.22
2022-08-23T05:50:38.223Z,101196.69
2022-08-23T05:53:05.743Z,101204.44
2022-08-23T05:55:35.103Z,101208.81
2022-08-23T05:58:16.936Z,101204.09
2022-08-23T06:00:45.168Z,101214.69
2022-08-23T06:03:13.112Z,101214.53
2022-08-23T06:05:42.558Z,101216.19
2022-08-23T06:08:11.631Z,101219.59
2022-08-23T06:10:42.222Z,101214.03
2022-08-23T06:13:40.635Z,101227.28
2022-08-23T06:16:14.299Z,101225.47
2022-08-23T06:18:42.622Z,101223.63
2022-08-23T06:21:27.829Z,101221.75
2022-08-23T06:23:56.381Z,101222.63
2022-08-23T06:26:25.192Z,101220.63
2022-08-23T06:28:56.975Z,101228.81
2022-08-23T06:31:39.045Z,101226.97
2022-08-23T06:34:10.325Z,101225.31
2022-08-23T06:36:57.522Z,101228.66
2022-08-23T06:39:58.250Z,101229.66
2022-08-23T06:42:48.311Z,101239.25
2022-08-23T06:45:20.678Z,101232.03
2022-08-23T06:48:01.518Z,101232.03
2022-08-23T06:50:31.960Z,101236.22
2022-08-23T06:53:20.121Z,101241.78
2022-08-23T06:56:15.283Z,101234.56
2022-08-23T06:58:53.100Z,101238.06
2022-08-23T07:01:45.493Z,101236.06
2022-08-23T07:04:21.622Z,101243.13
2022-08-23T07:07:11.570Z,101236.94
2022-08-23T07:09:41.101Z,101241.44
2022-08-23T07:12:09.130Z,101229.69
2022-08-23T07:14:39.391Z,101239.41
2022-08-23T07:17:08.208Z,101233.22
2022-08-23T07:19:35.649Z,101241.28
2022-08-23T07:22:04.067Z,101240.28
2022-08-23T07:24:33.627Z,101238.44
2022-08-23T07:27:06.733Z,101241.13
2022-08-23T07:29:36.081Z,101240.28
2022-08-23T07:32:04.850Z,101241.13
2022-08-23T07:34:33.045Z,101243.66
2022-08-23T07:37:01.553Z,101245.50
2022-08-23T07:39:31.643Z,101241.78
2022-08-23T07:42:00.746Z,101250.56
2022-08-23T07:44:30.023Z,101247.03
2022-08-23T07:46:58.748Z,101248.72
2022-08-23T07:49:29.334Z,101248.06
2022-08-23T07:51:59.810Z,101253.25
2022-08-23T07:54:28.372Z,101250.75
2022-08-23T07:57:19.917Z,101246.19
2022-08-23T07:59:54.712Z,101246.19
2022-08-23T08:02:40.017Z,101240.84
2022-08-23T08:05:17.324Z,101244.19
2022-08-23T08:07:48.855Z,101243.34
2022-08-23T08:10:16.372Z,101246.19
2022-08-23T08:12:43.893Z,101245.19
2022-08-23T08:15:18.427Z,101245.88
2022-08-23T08:17:50.962Z,101245.88
2022-08-23T08:20:18.444Z,101255.59
2022-08-23T08:23:04.799Z,101246.88
2022-08-23T08:26:01.110Z,101254.09
2022-08-23T08:28:28.656Z,101257.47
2022-08-23T08:30:58.936Z,101255.44
2022-08-23T08:33:30.721Z,101256.28
2022-08-23T08:36:01.177Z,101252.91
2022-08-23T08:38:32.479Z,101256.28
2022-08-23T08:41:09.151Z,101256.97
2022-08-23T08:43:48.567Z,101258.66
2022-08-23T08:46:22.117Z,101259.66
2022-08-23T08:48:51.303Z,101256.81
2022-08-23T08:51:38.224Z,101261.66
2022-08-23T08:54:08.259Z,101267.72
2022-08-23T08:56:40.260Z,101254.47
2022-08-23T08:59:21.779Z,101254.97
2022-08-23T09:01:50.772Z,101254.28
2022-08-23T09:04:25.528Z,101253.28
2022-08-23T09:06:55.571Z,101255.13
2022-08-23T09:09:35.144Z,101257.97
2022-08-23T09:12:06.451Z,101253.28
2022-08-23T09:14:39.639Z,101268.41
2022-08-23T09:17:16.087Z,101263.69
2022-08-23T09:19:44.672Z,101263.69
2022-08-23T09:22:13.456Z,101265.03
2022-08-23T09:24:41.088Z,101269.72
2022-08-23T09:27:15.411Z,101269.03
2022-08-23T09:29:57.201Z,101265.38
2022-08-23T09:32:32.879Z,101268.56
2022-08-23T09:35:11.231Z,101261.50
2022-08-23T09:37:57.009Z,101260.81
2022-08-23T09:40:34.131Z,101262.50
2022-08-23T09:43:13.874Z,101267.03
2022-08-23T09:45:43.601Z,101266.34
2022-08-23T09:48:15.253Z,101263.66
2022-08-23T09:50:54.385Z,101265.69
2022-08-23T09:53:25.198Z,101275.44
2022-08-23T09:55:53.400Z,101267.38
2022-08-23T09:58:23.595Z,101267.88
2022-08-23T10:01:06.692Z,101257.13
2022-08-23T10:03:36.181Z,101262.19
2022-08-23T10:06:15.975Z,101267.56
2022-08-23T10:08:52.981Z,101266.72
2022-08-23T10:11:22.696Z,101267.38
2022-08-23T10:13:50.655Z,101267.38
2022-08-23T10:16:22.736Z,101254.63
2022-08-23T10:19:03.288Z,101258.28
2022-08-23T10:21:37.415Z,101262.84
2022-08-23T10:24:18.760Z,101254.78
2022-08-23T10:26:52.284Z,101259.63
2022-08-23T10:29:39.142Z,101258.06
2022-08-23T10:32:13.441Z,101262.56
2022-08-23T10:34:56.525Z,101259.53
2022-08-23T10:37:41.730Z,101260.69
2022-08-23T10:40:13.369Z,101256.16
2022-08-23T10:42:43.536Z,101261.69
2022-08-23T10:45:16.859Z,101256.47
2022-08-23T10:47:53.117Z,101262.88
2022-08-23T10:50:22.170Z,101255.66
2022-08-23T10:52:55.616Z,101263.50
2022-08-23T10:55:35.671Z,101263.19
2022-08-23T10:58:05.495Z,101268.09
2022-08-23T11:00:33.189Z,101267.56
2022-08-23T11:03:15.728Z,101261.06
2022-08-23T11:05:44.511Z,101269.31
2022-08-23T11:08:31.813Z,101261.78
2022-08-23T11:11:00.777Z,101261.28
2022-08-23T11:13:34.965Z,101264.84
2022-08-23T11:16:06.768Z,101266.34
2022-08-23T11:18:40.259Z,101267.03
2022-08-23T11:21:11.716Z,101270.56
2022-08-23T11:23:54.160Z,101269.56
2022-08-23T11:27:05.961Z,101268.72
2022-08-23T11:29:38.168Z,101270.41
2022-08-23T11:32:47.370Z,101272.09
2022-08-23T11:35:35.343Z,101268.41
2022-08-23T11:38:05.359Z,101268.56
2022-08-23T11:40:59.108Z,101269.41
2022-08-23T11:43:34.679Z,101266.72
2022-08-23T11:46:31.059Z,101267.38
2022-08-23T11:49:31.991Z,101276.31
2022-08-23T11:52:04.118Z,101273.31
2022-08-23T11:54:44.745Z,101280.34
2022-08-23T11:57:20.081Z,101283.34
2022-08-23T12:00:14.740Z,101268.91
2022-08-23T12:02:51.687Z,101283.84
2022-08-23T12:05:41.552Z,101283.19
2022-08-23T12:08:46.228Z,101283.84
2022-08-23T12:11:15.358Z,101284.72
2022-08-23T12:13:51.443Z,101290.94
2022-08-23T12:16:38.479Z,101284.72
2022-08-23T12:19:13.556Z,101287.56
2022-08-23T12:21:43.659Z,101283.84
2022-08-23T12:24:17.364Z,101278.31
2022-08-23T12:26:50.403Z,101275.47
2022-08-23T12:29:23.166Z,101287.59
2022-08-23T12:31:53.670Z,101266.06
2022-08-23T12:34:23.371Z,101280.19
2022-08-23T12:36:58.720Z,101272.13
2022-08-23T12:39:34.419Z,101280.19
2022-08-23T12:42:07.158Z,101271.44
2022-08-23T12:44:34.731Z,101268.59
2022-08-23T12:47:11.368Z,101265.72
2022-08-23T12:49:38.903Z,101268.72
2022-08-23T12:52:09.599Z,101278.78
2022-08-23T12:54:39.267Z,101269.34
2022-08-23T12:57:11.810Z,101264.69
2022-08-23T12:59:43.361Z,101270.22
2022-08-23T13:02:12.219Z,101274.09
2022-08-23T13:04:40.269Z,101258.81
2022-08-23T13:07:08.791Z,101271.25
2022-08-23T13:09:37.758Z,101261.16
2022-08-23T13:12:06.284Z,101266.06
2022-08-23T13:14:37.700Z,101259.88
2022-08-23T13:17:23.263Z,101256.69
2022-08-23T13:19:51.676Z,101251.81
2022-08-23T13:22:24.802Z,101250.84
2022-08-23T13:25:26.684Z,101256.03
2022-08-23T13:27:51.784Z,101254.34
2022-08-23T13:30:22.596Z,101251.81
2022-08-23T13:32:50.503Z,101251.66
2022-08-23T13:35:24.587Z,101251.66
2022-08-23T13:37:52.863Z,101251.66
2022-08-23T13:40:22.527Z,101249.97
2022-08-23T13:42:53.083Z,101243.91
2022-08-23T13:45:24.630Z,101238.06
2022-08-23T13:47:55.460Z,101243.94
2022-08-23T13:50:24.868Z,101242.97
2022-08-23T13:53:13.560Z,101239.91
2022-08-23T13:55:41.638Z,101238.75
2022-08-23T13:58:10.381Z,101234.03
2022-08-23T14:00:39.140Z,101240.97
2022-08-23T14:03:13.355Z,101235.38
2022-08-23T14:05:40.793Z,101236.09
2022-08-23T14:08:09.716Z,101235.56
2022-08-23T14:10:37.146Z,101229.69
2022-08-23T14:13:04.621Z,101237.41
2022-08-23T14:18:20.994Z,101246.50
2022-08-23T14:20:51.258Z,101247.69
2022-08-23T14:23:19.017Z,101245.00
2022-08-23T14:25:47.243Z,101240.28
2022-08-23T14:28:14.791Z,101241.28
2022-08-23T14:30:42.272Z,101236.75
2022-08-23T14:33:09.732Z,101237.25
2022-08-23T14:35:38.506Z,101236.28
2022-08-23T14:38:05.932Z,101240.66
2022-08-23T14:40:33.415Z,101236.75
2022-08-23T14:43:00.964Z,101235.06
2022-08-23T14:45:28.542Z,101225.84
2022-08-23T14:47:56.046Z,101219.44
2022-08-23T14:50:23.605Z,101225.16
2022-08-23T14:52:52.361Z,101222.13
2022-08-23T14:55:24.382Z,101231.38
2022-08-23T14:57:52.554Z,101225.66
2022-08-23T15:00:20.153Z,101226.50
2022-08-23T15:02:48.701Z,101224.13
2022-08-23T15:05:16.266Z,101212.72
2022-08-23T15:07:43.740Z,101222.13
2022-08-23T15:10:49.936Z,101228.53
2022-08-23T15:13:15.602Z,101218.44
2022-08-23T15:15:49.194Z,101222.50
2022-08-23T15:18:16.740Z,101218.66
2022-08-23T15:20:45.323Z,101213.09
2022-08-23T15:23:12.824Z,101213.28
2022-08-23T15:25:42.625Z,101216.94
2022-08-23T15:28:13.166Z,101214.25
2022-08-23T15:30:41.134Z,101215.97
2022-08-23T15:33:10.142Z,101218.66
2022-08-23T15:35:39.837Z,101216.78
2022-08-23T15:38:08.178Z,101212.25
2022-08-23T15:40:35.703Z,101208.38
2022-08-23T15:43:04.473Z,101217.97
2022-08-23T15:45:32.206Z,101209.88
2022-08-23T15:48:01.048Z,101210.22
2022-08-23T15:50:30.926Z,101208.22
2022-08-23T15:52:58.652Z,101208.72
2022-08-23T15:55:26.247Z,101206.69
2022-08-23T15:57:53.727Z,101207.72
2022-08-23T16:00:24.135Z,101208.69
2022-08-23T16:03:18.748Z,101198.28
2022-08-23T16:05:39.221Z,101207.38
2022-08-23T16:08:06.988Z,101211.75
2022-08-23T16:10:34.539Z,101201.66
2022-08-23T16:13:03.387Z,101200.31
2022-08-23T16:15:32.366Z,101197.09
2022-08-23T16:17:59.898Z,101207.72
2022-08-23T16:20:27.524Z,101205.69
2022-08-23T16:22:54.972Z,101194.06
2022-08-23T16:25:22.424Z,101202.50
2022-08-23T16:27:49.915Z,101206.38
2022-08-23T16:30:17.639Z,101202.31
2022-08-23T16:32:46.352Z,101202.66
2022-08-23T16:35:14.877Z,101197.94
2022-08-23T16:37:42.339Z,101203.31
2022-08-23T16:40:10.822Z,101195.59
2022-08-23T16:42:38.350Z,101201.97
2022-08-23T16:45:06.812Z,101211.22
2022-08-23T16:47:36.223Z,101205.50
2022-08-23T16:50:05.732Z,101205.34
2022-08-23T16:52:34.747Z,101207.69
2022-08-23T16:55:02.509Z,101206.66
2022-08-23T16:57:29.956Z,101206.66
2022-08-23T16:59:57.413Z,101212.25
2022-08-23T17:02:28.268Z,101218.13
2022-08-23T17:04:55.804Z,101221.16
2022-08-23T17:07:24.614Z,101224.50
2022-08-23T17:09:52.073Z,101222.81
2022-08-23T17:12:19.646Z,101229.22
2022-08-23T17:14:48.858Z,101232.75
2022-08-23T17:17:16.339Z,101238.44
2022-08-23T17:19:44.463Z,101244.88
2022-08-23T17:22:12.118Z,101238.97
2022-08-23T17:24:41.210Z,101248.72
2022-08-23T17:27:08.634Z,101247.06
2022-08-23T17:29:43.274Z,101248.03
2022-08-23T17:32:10.873Z,101247.06
2022-08-23T17:34:39.133Z,101250.91
2022-08-23T17:37:15.617Z,101257.13
2022-08-23T17:39:44.395Z,101260.66
2022-08-23T17:42:11.853Z,101249.41
2022-08-23T17:44:39.636Z,101268.41
2022-08-23T17:47:07.824Z,101263.03
2022-08-23T17:49:36.789Z,101263.03
2022-08-23T17:52:06.259Z,101266.72
2022-08-23T17:54:33.731Z,101274.09
2022-08-23T17:57:04.905Z,101268.06
2022-08-23T17:59:32.895Z,101272.78
2022-08-23T18:02:00.313Z,101277.13
2022-08-23T18:04:27.818Z,101278.16
2022-08-23T18:06:55.313Z,101289.75
2022-08-23T18:09:22.768Z,101297.81
2022-08-23T18:11:50.243Z,101294.47
2022-08-23T18:14:18.993Z,101294.63
2022-08-23T18:16:46.865Z,101303.53
2022-08-23T18:19:14.443Z,101305.53
2022-08-23T18:21:42.056Z,101309.38
2022-08-23T18:24:09.559Z,101312.06
2022-08-23T18:26:54.825Z,101312.28
2022-08-23T18:29:23.569Z,101318.47
2022-08-23T18:31:51.131Z,101319.47
2022-08-23T18:34:18.857Z,101312.56
2022-08-23T18:36:46.884Z,101325.03
2022-08-23T18:39:14.538Z,101322.47
2022-08-23T18:41:42.122Z,101320.78
2022-08-23T18:44:09.738Z,101310.03
2022-08-23T18:46:39.786Z,101327.00
2022-08-23T18:49:07.920Z,101324.47
2022-08-23T18:51:35.741Z,101326.34
2022-08-23T18:54:03.189Z,101328.34
2022-08-23T18:56:30.665Z,101325.50
2022-08-23T18:58:58.163Z,101332.72
2022-08-23T19:01:28.515Z,101340.09
2022-08-23T19:03:58.068Z,101334.72
2022-08-23T19:06:25.510Z,101327.50
2022-08-23T19:08:53.029Z,101334.06
2022-08-23T19:11:20.884Z,101338.44
2022-08-23T19:13:49.579Z,101340.09
2022-08-23T19:16:17.104Z,101343.81
2022-08-23T19:18:46.403Z,101338.44
2022-08-23T19:21:18.263Z,101338.44
2022-08-23T19:23:45.751Z,101342.94
2022-08-23T19:26:13.482Z,101343.97
2022-08-23T19:28:41.014Z,101346.66
2022-08-23T19:31:09.082Z,101344.97
2022-08-23T19:33:36.640Z,101355.72
2022-08-23T19:36:04.601Z,101360.28
2022-08-23T19:38:33.318Z,101355.88
2022-08-23T19:41:01.126Z,101357.59
2022-08-23T19:43:28.590Z,101365.66
2022-08-23T19:45:59.311Z,101368.50
2022-08-23T19:48:27.079Z,101367.66
2022-08-23T19:50:54.524Z,101366.13
2022-08-23T19:53:22.009Z,101371.34
2022-08-23T19:55:51.192Z,101369.66
2022-08-23T19:58:18.612Z,101372.34
2022-08-23T20:00:46.131Z,101378.59
2022-08-23T20:03:13.774Z,101373.38
2022-08-23T20:05:42.025Z,101377.88
2022-08-23T20:08:09.491Z,101381.59
2022-08-23T20:10:36.924Z,101388.81
2022-08-23T20:13:06.021Z,101376.38
2022-08-23T20:15:33.441Z,101379.06
2022-08-23T20:18:01.020Z,101387.13
2022-08-23T20:20:28.445Z,101385.59
2022-08-23T20:23:12.415Z,101389.31
2022-08-23T20:25:39.848Z,101387.59
2022-08-23T20:28:08.557Z,101392.16
2022-08-23T20:30:37.344Z,101394.84
2022-08-23T20:33:05.037Z,101400.22
2022-08-23T20:35:32.524Z,101404.75
2022-08-23T20:38:02.382Z,101402.91
2022-08-23T20:40:29.992Z,101399.53
2022-08-23T20:42:57.542Z,101400.53
2022-08-23T20:45:26.276Z,101402.38
2022-08-23T20:47:53.803Z,101403.22
2022-08-23T20:50:21.240Z,101404.91
2022-08-23T20:52:48.669Z,101400.06
2022-08-23T20:55:16.141Z,101407.09
2022-08-23T20:57:43.589Z,101406.94
2022-08-23T21:00:12.630Z,101411.31
2022-08-23T21:02:41.353Z,101414.69
2022-08-23T21:05:09.549Z,101409.31
2022-08-23T21:07:37.574Z,101412.00
2022-08-23T21:10:06.035Z,101408.47
2022-08-23T21:12:33.499Z,101408.63
2022-08-23T21:15:00.914Z,101409.31
2022-08-23T21:17:28.361Z,101411.00
2022-08-23T21:19:57.092Z,101405.78
2022-08-23T21:22:32.197Z,101404.75
2022-08-23T21:24:59.812Z,101402.25
2022-08-23T21:27:28.256Z,101388.81
2022-08-23T21:29:55.734Z,101394.00
2022-08-23T21:32:23.165Z,101401.25
2022-08-23T21:34:50.601Z,101396.88
2022-08-23T21:37:19.322Z,101401.09
2022-08-23T21:39:47.849Z,101394.88
2022-08-23T21:42:15.569Z,101393.84
2022-08-23T21:44:43.077Z,101392.19
2022-08-23T21:47:10.576Z,101386.97
2022-08-23T21:49:38.167Z,101392.00
2022-08-23T21:52:05.765Z,101393.28
2022-08-23T21:54:34.466Z,101389.94
2022-08-23T21:57:01.891Z,101384.72
2022-08-23T21:59:29.709Z,101391.94
2022-08-23T22:01:57.185Z,101389.09
2022-08-23T22:04:24.658Z,101389.94
2022-08-23T22:06:55.871Z,101386.41
2022-08-23T22:09:31.338Z,101382.91
2022-08-23T22:12:00.476Z,101386.25
2022-08-23T22:14:31.206Z,101389.63
2022-08-23T22:16:59.320Z,101384.41
2022-08-23T22:19:26.784Z,101384.72
2022-08-23T22:21:54.282Z,101386.72
2022-08-23T22:24:25.542Z,101383.38
2022-08-23T22:26:54.739Z,101378.97
2022-08-23T22:29:23.804Z,101380.00
2022-08-23T22:31:51.277Z,101373.97
2022-08-23T22:34:18.714Z,101388.38
2022-08-23T22:36:46.266Z,101381.31
2022-08-23T22:39:19.617Z,101386.00
2022-08-23T22:41:47.043Z,101392.41
2022-08-23T22:44:14.551Z,101394.06
2022-08-23T22:46:43.422Z,101393.25
2022-08-23T22:49:10.898Z,101384.34
2022-08-23T22:51:38.765Z,101387.03
2022-08-23T22:54:08.367Z,101388.03
2022-08-23T22:56:38.538Z,101386.31
2022-08-23T22:59:06.118Z,101385.34
2022-08-23T23:01:34.828Z,101383.63
2022-08-23T23:04:04.469Z,101379.97
2022-08-23T23:06:31.910Z,101381.97
2022-08-23T23:08:59.417Z,101387.34
2022-08-23T23:11:26.843Z,101385.66
2022-08-23T23:13:54.263Z,101391.03
2022-08-23T23:16:23.227Z,101381.28
2022-08-23T23:19:04.805Z,101388.34
2022-08-23T23:21:34.623Z,101378.63
2022-08-23T23:24:02.177Z,101378.63
2022-08-23T23:26:29.597Z,101379.59
2022-08-23T23:28:57.023Z,101387.50
2022-08-23T23:31:24.744Z,101387.50
2022-08-23T23:33:52.189Z,101392.22
2022-08-23T23:36:20.845Z,101382.28
2022-08-23T23:38:49.598Z,101389.69
2022-08-23T23:41:17.015Z,101383.47
2022-08-23T23:43:44.471Z,101373.56
2022-08-23T23:46:13.305Z,101371.84
2022-08-23T23:48:40.926Z,101371.03
2022-08-23T23:51:09.364Z,101374.53
2022-08-23T23:53:36.861Z,101376.25
2022-08-23T23:56:06.556Z,101374.38
2022-08-23T23:58:34.471Z,101376.25
